Time;durP1;ratioP1;P1;durP2;ratioP2;P2;SDS_P1;SDS_P2;PMS_P1;PMS_P2;Temp;Humidity;BMP_temperature;BMP_pressure;BME280_temperature;BME280_humidity;BME280_pressure;Samples;Min_cycle;Max_cycle;Signal;HPM_P1;HPM_P2
2022/12/27 00:02:25;;;;;;;5.65;1.45;;;5.20;99.90;;;;;;5033179;28;20041;-80
2022/12/27 00:04:52;;;;;;;8.88;1.48;;;5.20;99.90;;;;;;5030662;28;20044;-75
2022/12/27 00:07:18;;;;;;;7.82;1.80;;;5.30;99.90;;;;;;5014898;28;20386;-75
2022/12/27 00:09:44;;;;;;;11.07;1.63;;;5.30;99.90;;;;;;5018643;28;20055;-80
2022/12/27 00:12:10;;;;;;;7.93;2.15;;;5.30;99.90;;;;;;5011245;28;20041;-80
2022/12/27 00:14:36;;;;;;;10.82;2.10;;;5.30;99.90;;;;;;4995514;28;20037;-75
2022/12/27 00:17:02;;;;;;;7.15;1.60;;;5.20;99.90;;;;;;5028640;28;20354;-74
2022/12/27 00:19:30;;;;;;;10.15;2.38;;;5.20;99.90;;;;;;5030179;28;20060;-74
2022/12/27 00:21:57;;;;;;;9.10;1.80;;;5.10;99.90;;;;;;5027792;28;20485;-74
2022/12/27 00:24:22;;;;;;;8.75;1.73;;;5.00;99.90;;;;;;4995933;28;20077;-80
2022/12/27 00:26:48;;;;;;;10.43;1.70;;;5.00;99.90;;;;;;5012316;28;20049;-79
2022/12/27 00:29:14;;;;;;;8.50;2.20;;;5.00;99.90;;;;;;5011929;28;20041;-74
2022/12/27 00:31:40;;;;;;;8.52;1.67;;;4.90;99.90;;;;;;5028409;28;20509;-74
2022/12/27 00:34:06;;;;;;;8.38;1.85;;;4.90;99.90;;;;;;5012386;28;20124;-79
2022/12/27 00:36:33;;;;;;;8.90;1.90;;;4.90;99.90;;;;;;5029016;28;20065;-80
2022/12/27 00:38:59;;;;;;;10.90;2.10;;;4.80;99.90;;;;;;5012067;28;20085;-79
2022/12/27 00:41:25;;;;;;;8.02;1.92;;;4.70;99.90;;;;;;5011660;28;20469;-79
2022/12/27 00:43:52;;;;;;;7.88;1.63;;;4.70;99.90;;;;;;5011716;28;20405;-75
2022/12/27 00:46:18;;;;;;;7.47;1.60;;;4.70;99.90;;;;;;4995436;28;20628;-74
2022/12/27 00:48:44;;;;;;;6.00;1.40;;;4.70;99.90;;;;;;5011733;28;20094;-79
2022/12/27 00:51:22;;;;;;;9.93;1.75;;;4.60;99.90;;;;;;5029037;28;20118;-79
2022/12/27 00:53:48;;;;;;;8.75;1.83;;;4.60;99.90;;;;;;5012033;28;20049;-75
2022/12/27 00:56:28;;;;;;;7.57;1.70;;;4.60;99.90;;;;;;5010995;28;20485;-74
2022/12/27 00:58:59;;;;;;;11.43;2.10;;;4.60;99.90;;;;;;5028326;28;20282;-79
2022/12/27 01:01:28;;;;;;;10.73;1.90;;;4.60;99.90;;;;;;5011790;28;20046;-79
2022/12/27 01:03:54;;;;;;;12.20;2.17;;;4.60;99.90;;;;;;4994912;28;20120;-79
2022/12/27 01:06:22;;;;;;;14.02;2.00;;;4.50;99.90;;;;;;5011549;28;20083;-79
2022/12/27 01:08:48;;;;;;;13.18;2.42;;;4.50;99.90;;;;;;4995262;28;20046;-79
2022/12/27 01:11:15;;;;;;;4.75;1.50;;;4.50;99.90;;;;;;5028767;28;20452;-79
2022/12/27 01:13:42;;;;;;;6.30;1.77;;;4.50;99.90;;;;;;5011893;28;20068;-75
2022/12/27 01:16:16;;;;;;;11.73;2.38;;;4.60;99.90;;;;;;5028875;28;20552;-74
2022/12/27 01:18:44;;;;;;;9.00;1.70;;;4.60;99.90;;;;;;4994710;28;20041;-75
2022/12/27 01:21:12;;;;;;;6.35;1.95;;;4.60;99.90;;;;;;5013240;28;20441;-74
2022/12/27 01:23:42;;;;;;;6.47;1.55;;;4.60;99.90;;;;;;4999247;28;20079;-75
2022/12/27 01:26:18;;;;;;;5.60;1.98;;;4.60;99.90;;;;;;5031305;28;20048;-74
2022/12/27 01:28:44;;;;;;;5.93;1.85;;;4.60;99.90;;;;;;4999496;28;20021;-75
2022/12/27 01:31:17;;;;;;;11.05;1.77;;;4.50;99.90;;;;;;5031173;28;20088;-75
2022/12/27 01:33:43;;;;;;;11.75;1.70;;;4.50;99.90;;;;;;4999160;28;20044;-79
2022/12/27 01:36:12;;;;;;;7.43;1.73;;;4.50;99.90;;;;;;5015541;28;20095;-79
2022/12/27 01:38:38;;;;;;;8.95;1.98;;;4.50;99.90;;;;;;5031954;28;20120;-75
2022/12/27 01:42:50;;;;;;;12.10;2.53;;;4.50;99.90;;;;;;5014848;28;20485;-75
2022/12/27 01:43:50;;;;;;;8.27;3.00;;;4.50;99.90;;;;;;5033152;28;20076;-79
2022/12/27 01:46:16;;;;;;;10.50;1.85;;;4.60;99.90;;;;;;5032453;28;20425;-79
2022/12/27 01:48:43;;;;;;;5.40;2.00;;;4.70;99.90;;;;;;5010005;28;20118;-79
2022/12/27 01:51:09;;;;;;;13.00;2.20;;;4.70;99.90;;;;;;5012042;28;20346;-79
2022/12/27 01:53:40;;;;;;;12.90;1.80;;;4.70;99.90;;;;;;5032314;28;20044;-79
2022/12/27 01:56:15;;;;;;;9.88;1.83;;;4.80;99.90;;;;;;4998503;28;20073;-79
2022/12/27 01:58:49;;;;;;;11.60;1.90;;;4.80;99.90;;;;;;5032837;28;20043;-80
2022/12/27 02:01:21;;;;;;;8.38;2.60;;;4.80;99.90;;;;;;5014862;28;20083;-79
2022/12/27 02:03:57;;;;;;;7.90;1.80;;;4.90;99.90;;;;;;5015246;28;20389;-75
2022/12/27 02:06:26;;;;;;;15.20;2.50;;;4.90;99.90;;;;;;5014051;28;20139;-75
2022/12/27 02:09:17;;;;;;;16.08;2.38;;;4.90;99.90;;;;;;4997414;28;20049;-79
2022/12/27 02:11:50;;;;;;;17.40;3.78;;;4.90;99.90;;;;;;5011656;28;20397;-79
2022/12/27 02:14:22;;;;;;;11.93;1.83;;;4.90;99.90;;;;;;5011124;28;20068;-75
2022/12/27 02:16:48;;;;;;;11.07;1.77;;;4.90;99.90;;;;;;5011305;28;20092;-75
2022/12/27 02:19:32;;;;;;;8.65;1.75;;;4.80;99.90;;;;;;5012934;28;20037;-79
2022/12/27 02:22:22;;;;;;;8.75;1.50;;;4.80;99.90;;;;;;5012005;28;20148;-79
2022/12/27 02:24:50;;;;;;;14.88;3.00;;;4.70;99.90;;;;;;5012525;28;20071;-79
2022/12/27 02:27:28;;;;;;;8.55;2.63;;;4.70;99.90;;;;;;5011692;28;20050;-79
2022/12/27 02:30:07;;;;;;;6.40;1.40;;;4.70;99.90;;;;;;5011154;28;20045;-75
2022/12/27 02:33:01;;;;;;;6.78;1.67;;;4.60;99.90;;;;;;4995028;28;20038;-75
2022/12/27 02:35:51;;;;;;;12.80;2.10;;;4.60;99.90;;;;;;4981745;28;20048;-75
2022/12/27 02:38:30;;;;;;;18.73;3.38;;;4.60;99.90;;;;;;5030447;28;20053;-75
2022/12/27 02:55:25;;;;;;;9.98;1.80;;;4.40;99.90;;;;;;5013300;28;20048;-75
2022/12/27 02:57:59;;;;;;;9.63;1.58;;;4.30;99.90;;;;;;5013987;28;20041;-75
2022/12/27 03:03:49;;;;;;;8.88;2.30;;;4.30;99.90;;;;;;5013117;28;20563;-79
2022/12/27 03:06:39;;;;;;;11.43;2.00;;;4.20;99.90;;;;;;5031498;28;20041;-79
2022/12/27 03:15:53;;;;;;;6.03;1.38;;;4.20;99.90;;;;;;5030862;28;20042;-76
2022/12/27 03:17:52;;;;;;;14.75;2.42;;;4.30;99.90;;;;;;5013040;28;20060;-79
2022/12/27 03:25:57;;;;;;;10.50;4.03;;;4.40;99.90;;;;;;5031379;28;20053;-73
2022/12/27 03:40:29;;;;;;;13.95;5.60;;;4.60;99.90;;;;;;5031474;28;20232;-72
2022/12/27 03:43:11;;;;;;;16.20;5.88;;;4.60;99.90;;;;;;5012812;28;20037;-73
2022/12/27 03:48:32;;;;;;;10.38;3.80;;;4.60;99.90;;;;;;5028023;28;20423;-81
2022/12/27 03:51:03;;;;;;;11.95;3.63;;;4.60;99.90;;;;;;5025983;28;20046;-71
2022/12/27 03:53:42;;;;;;;12.95;3.63;;;4.60;99.90;;;;;;5012954;28;20390;-75
2022/12/27 03:56:09;;;;;;;10.38;2.47;;;4.70;99.90;;;;;;5012998;28;20124;-79
2022/12/27 03:58:35;;;;;;;8.13;3.22;;;4.60;99.90;;;;;;4995945;28;20042;-79
2022/12/27 04:01:01;;;;;;;15.23;3.25;;;4.60;99.90;;;;;;5030515;28;20409;-75
2022/12/27 04:03:27;;;;;;;16.50;2.90;;;4.50;99.90;;;;;;5012557;28;20045;-74
2022/12/27 04:05:53;;;;;;;17.48;3.55;;;4.50;99.90;;;;;;5012353;28;20048;-75
2022/12/27 04:35:42;;;;;;;11.25;2.85;;;4.30;99.90;;;;;;5030002;28;20042;-81
2022/12/27 04:38:08;;;;;;;15.73;3.03;;;4.30;99.90;;;;;;5029319;28;20460;-80
2022/12/27 04:57:06;;;;;;;13.20;2.55;;;4.50;99.90;;;;;;4991892;28;20057;-75
2022/12/27 05:02:18;;;;;;;10.38;2.38;;;4.40;99.90;;;;;;5009234;28;20096;-81
2022/12/27 05:04:45;;;;;;;9.18;1.92;;;4.40;99.90;;;;;;4992027;28;20037;-81
2022/12/27 05:15:29;;;;;;;12.82;1.95;;;4.10;99.90;;;;;;5028933;28;20100;-81
2022/12/27 05:17:56;;;;;;;11.73;2.17;;;4.00;99.90;;;;;;5011616;28;20470;-81
2022/12/27 05:20:22;;;;;;;8.35;2.15;;;4.00;99.90;;;;;;5011613;28;20042;-74
2022/12/27 05:25:38;;;;;;;12.65;2.45;;;4.00;99.90;;;;;;5029277;28;20501;-82
2022/12/27 05:28:07;;;;;;;10.75;2.20;;;4.10;99.90;;;;;;5011644;28;20452;-81
2022/12/27 05:30:37;;;;;;;13.57;2.45;;;4.10;99.90;;;;;;5028772;28;20494;-75
2022/12/27 05:33:04;;;;;;;14.02;3.20;;;4.20;99.90;;;;;;5011620;28;20445;-76
2022/12/27 05:35:32;;;;;;;8.82;2.05;;;4.20;99.90;;;;;;5011556;28;20041;-77
2022/12/27 05:37:58;;;;;;;11.52;2.42;;;4.30;99.90;;;;;;5010641;28;20045;-77
2022/12/27 05:40:24;;;;;;;19.88;4.32;;;4.30;99.90;;;;;;5011400;28;20068;-81
2022/12/27 05:42:50;;;;;;;13.50;4.80;;;4.30;99.90;;;;;;5028558;28;20132;-81
2022/12/27 05:45:17;;;;;;;11.02;4.90;;;4.30;99.90;;;;;;5011762;28;20135;-77
2022/12/27 05:47:43;;;;;;;11.60;3.90;;;4.40;99.90;;;;;;5029019;28;20458;-76
2022/12/27 05:50:09;;;;;;;13.05;3.15;;;4.40;99.90;;;;;;5020285;28;20076;-76
2022/12/27 05:52:35;;;;;;;9.15;2.78;;;4.40;99.90;;;;;;5011641;28;20037;-81
2022/12/27 05:55:01;;;;;;;11.05;1.98;;;4.40;99.90;;;;;;5028851;28;20477;-81
2022/12/27 05:57:27;;;;;;;12.23;2.38;;;4.30;99.90;;;;;;5010802;28;20044;-81
2022/12/27 05:59:52;;;;;;;14.20;2.60;;;4.30;99.90;;;;;;4995270;28;20152;-81
2022/12/27 06:02:18;;;;;;;12.18;3.05;;;4.10;99.90;;;;;;5011396;28;20045;-78
2022/12/27 06:04:44;;;;;;;13.13;3.20;;;4.10;99.90;;;;;;5010629;28;20478;-76
2022/12/27 06:07:12;;;;;;;8.38;3.38;;;4.10;99.90;;;;;;5012568;28;20413;-76
2022/12/27 06:09:38;;;;;;;11.25;2.67;;;4.20;99.90;;;;;;5014516;28;20467;-76
2022/12/27 06:12:05;;;;;;;12.32;2.83;;;4.20;99.90;;;;;;5032230;28;20041;-82
2022/12/27 06:14:30;;;;;;;7.20;2.25;;;4.30;99.90;;;;;;5032499;28;20033;-82
2022/12/27 06:16:56;;;;;;;14.60;2.85;;;4.30;99.90;;;;;;5015154;28;20508;-82
2022/12/27 06:19:22;;;;;;;8.88;2.50;;;4.30;99.90;;;;;;5013481;28;20386;-81
2022/12/27 06:21:48;;;;;;;10.80;2.53;;;4.30;99.90;;;;;;5015057;28;20049;-81
2022/12/27 06:24:15;;;;;;;10.35;2.67;;;4.30;99.90;;;;;;5014161;28;20412;-81
2022/12/27 06:26:41;;;;;;;10.65;2.92;;;4.40;99.90;;;;;;5031771;28;20485;-76
2022/12/27 06:29:11;;;;;;;9.95;2.40;;;4.40;99.90;;;;;;5032126;28;20057;-76
2022/12/27 06:31:37;;;;;;;11.77;2.58;;;4.40;99.90;;;;;;5032292;28;20045;-81
2022/12/27 06:34:03;;;;;;;10.30;2.08;;;4.40;99.90;;;;;;5013660;28;20042;-81
2022/12/27 06:36:29;;;;;;;15.35;2.63;;;4.30;99.90;;;;;;5032237;28;20111;-81
2022/12/27 06:38:56;;;;;;;11.10;2.58;;;4.30;99.90;;;;;;5031047;28;20489;-81
2022/12/27 06:41:22;;;;;;;9.05;2.30;;;4.30;99.90;;;;;;5030802;28;20084;-77
2022/12/27 06:43:52;;;;;;;11.50;2.38;;;4.30;99.90;;;;;;5013931;28;20076;-77
2022/12/27 06:46:18;;;;;;;10.15;2.35;;;4.30;99.90;;;;;;5031676;28;20045;-76
2022/12/27 06:48:44;;;;;;;8.43;2.58;;;4.20;99.90;;;;;;5008796;28;20049;-77
2022/12/27 06:51:12;;;;;;;12.82;3.38;;;4.20;99.90;;;;;;5029095;28;20050;-77
2022/12/27 06:53:38;;;;;;;7.80;2.05;;;4.20;99.90;;;;;;5013458;28;20041;-77
2022/12/27 06:56:12;;;;;;;9.77;2.25;;;4.10;99.90;;;;;;5014274;28;20750;-76
2022/12/27 06:58:38;;;;;;;10.20;2.38;;;4.10;99.90;;;;;;5031472;28;20494;-76
2022/12/27 07:01:18;;;;;;;11.18;2.30;;;4.00;99.90;;;;;;5031154;28;20051;-76
2022/12/27 07:03:51;;;;;;;10.25;2.35;;;4.00;99.90;;;;;;5013720;28;20045;-77
2022/12/27 07:06:17;;;;;;;17.45;2.85;;;4.00;99.90;;;;;;5014144;28;20048;-77
2022/12/27 07:08:44;;;;;;;11.90;2.58;;;4.00;99.90;;;;;;5013109;28;20397;-77
2022/12/27 07:11:11;;;;;;;12.93;2.75;;;4.00;99.90;;;;;;5014160;28;20049;-80
2022/12/27 07:13:39;;;;;;;13.82;1.90;;;3.90;99.90;;;;;;5031269;28;20409;-81
2022/12/27 07:16:07;;;;;;;11.65;2.88;;;3.90;99.90;;;;;;5012956;28;20429;-77
2022/12/27 07:18:33;;;;;;;14.27;3.08;;;3.90;99.90;;;;;;5030019;28;20129;-77
2022/12/27 07:21:06;;;;;;;8.10;1.55;;;3.90;99.90;;;;;;5031056;28;20059;-81
2022/12/27 07:23:33;;;;;;;10.80;2.00;;;3.90;99.90;;;;;;5031064;28;20120;-79
2022/12/27 07:26:16;;;;;;;9.43;2.22;;;3.90;99.90;;;;;;5031400;28;20285;-79
2022/12/27 07:28:42;;;;;;;7.10;2.30;;;3.90;99.90;;;;;;4996411;28;20398;-77
2022/12/27 07:31:23;;;;;;;13.02;2.67;;;3.90;99.90;;;;;;4997259;28;20030;-74
2022/12/27 07:33:49;;;;;;;;;;;3.80;99.90;;;;;;5032215;28;20096;-77
2022/12/27 07:36:24;;;;;;;15.35;2.42;;;3.70;99.90;;;;;;5013386;28;19917;-78
2022/12/27 07:38:50;;;;;;;11.27;2.50;;;3.70;99.90;;;;;;5030801;28;20057;-79
2022/12/27 07:41:16;;;;;;;12.23;1.83;;;3.60;99.90;;;;;;5030857;28;20041;-79
2022/12/27 07:43:43;;;;;;;10.35;2.15;;;3.50;99.90;;;;;;5030851;28;20120;-76
2022/12/27 07:46:20;;;;;;;12.80;2.22;;;3.50;99.90;;;;;;5031646;28;20046;-77
2022/12/27 07:48:46;;;;;;;7.18;1.98;;;3.40;99.90;;;;;;5026173;28;20037;-75
2022/12/27 07:51:14;;;;;;;10.43;2.30;;;3.40;99.90;;;;;;4993916;28;20037;-76
2022/12/27 07:53:40;;;;;;;10.57;2.28;;;3.40;99.90;;;;;;4993913;28;20049;-77
2022/12/27 07:56:11;;;;;;;15.13;2.63;;;3.40;99.90;;;;;;4993731;28;20038;-77
2022/12/27 07:58:43;;;;;;;10.20;2.50;;;3.30;99.90;;;;;;4993771;28;20076;-75
2022/12/27 08:01:10;;;;;;;15.65;2.50;;;3.30;99.90;;;;;;5011335;28;20053;-76
2022/12/27 08:03:37;;;;;;;10.70;2.30;;;3.30;99.90;;;;;;4993329;28;20479;-77
2022/12/27 08:06:07;;;;;;;8.75;2.35;;;3.30;99.90;;;;;;4994186;28;20073;-77
2022/12/27 08:08:39;;;;;;;8.73;2.83;;;3.30;99.90;;;;;;4993766;28;20042;-80
2022/12/27 08:11:07;;;;;;;7.32;2.72;;;3.30;99.90;;;;;;5014723;28;20088;-79
2022/12/27 08:13:34;;;;;;;7.90;2.17;;;3.30;99.90;;;;;;5013106;28;20132;-79
2022/12/27 08:16:00;;;;;;;10.32;3.45;;;3.40;99.90;;;;;;4996987;28;20045;-77
2022/12/27 08:18:27;;;;;;;7.70;2.55;;;3.30;99.90;;;;;;5030373;28;20082;-74
2022/12/27 08:20:53;;;;;;;9.75;2.70;;;3.40;99.90;;;;;;5013068;28;20413;-73
2022/12/27 08:23:19;;;;;;;10.68;3.70;;;3.40;99.90;;;;;;5031035;28;20029;-74
2022/12/27 08:25:45;;;;;;;14.38;3.53;;;3.30;99.90;;;;;;5012322;28;20120;-73
2022/12/27 08:28:13;;;;;;;15.55;3.13;;;3.30;99.90;;;;;;5013363;28;20057;-76
2022/12/27 08:30:41;;;;;;;8.63;3.20;;;3.40;99.90;;;;;;5013345;28;20069;-84
2022/12/27 08:33:07;;;;;;;13.10;3.03;;;3.40;99.90;;;;;;5013133;28;20111;-81
2022/12/27 08:35:36;;;;;;;7.63;2.22;;;3.50;99.90;;;;;;5016285;28;20037;-88
2022/12/27 08:38:02;;;;;;;16.73;2.70;;;3.50;99.90;;;;;;4997830;28;20045;-81
2022/12/27 08:40:28;;;;;;;17.80;3.95;;;3.60;99.90;;;;;;5031096;28;20049;-81
2022/12/27 08:42:54;;;;;;;9.63;2.25;;;3.70;99.90;;;;;;5030969;28;20424;-72
2022/12/27 08:45:19;;;;;;;13.35;2.72;;;3.70;99.90;;;;;;5029780;28;20080;-73
2022/12/27 08:47:45;;;;;;;12.73;2.40;;;3.90;99.90;;;;;;5012815;28;20049;-72
2022/12/27 08:50:11;;;;;;;7.45;2.35;;;4.40;99.90;;;;;;5029893;28;20037;-73
2022/12/27 08:52:37;;;;;;;8.60;3.08;;;4.90;99.90;;;;;;5029017;28;20044;-79
2022/12/27 08:55:03;;;;;;;7.72;2.10;;;5.50;99.90;;;;;;5030636;28;20494;-80
2022/12/27 08:57:29;;;;;;;9.65;2.28;;;5.90;99.90;;;;;;5030595;28;20037;-80
2022/12/27 08:59:55;;;;;;;9.05;2.10;;;6.10;99.90;;;;;;5029739;28;20505;-81
2022/12/27 09:02:20;;;;;;;7.97;2.10;;;6.40;99.90;;;;;;5012621;28;20056;-73
2022/12/27 09:04:46;;;;;;;8.80;1.67;;;6.80;99.90;;;;;;5028770;28;20045;-72
2022/12/27 09:07:12;;;;;;;13.25;2.40;;;7.30;99.90;;;;;;5011837;28;20463;-72
2022/12/27 09:09:41;;;;;;;8.68;2.15;;;7.70;99.90;;;;;;5028744;28;20042;-73
2022/12/27 09:12:07;;;;;;;9.23;1.95;;;8.00;99.90;;;;;;5012708;28;20037;-73
2022/12/27 09:14:32;;;;;;;9.57;2.22;;;8.10;99.90;;;;;;5029445;28;20124;-72
2022/12/27 09:16:58;;;;;;;8.48;2.22;;;8.30;99.90;;;;;;5030344;28;20045;-79
2022/12/27 09:19:24;;;;;;;11.10;2.10;;;8.50;99.90;;;;;;5012776;28;20134;-78
2022/12/27 09:21:50;;;;;;;7.68;2.17;;;8.70;99.90;;;;;;5029924;28;20050;-73
2022/12/27 09:24:16;;;;;;;10.57;2.97;;;8.60;99.90;;;;;;5011561;28;20039;-73
2022/12/27 09:26:42;;;;;;;6.55;1.90;;;8.10;99.90;;;;;;5012939;28;20081;-77
2022/12/27 09:29:07;;;;;;;6.93;1.85;;;7.60;99.90;;;;;;5013406;28;20041;-75
2022/12/27 09:31:33;;;;;;;15.77;2.40;;;7.10;99.90;;;;;;5022333;28;20067;-77
2022/12/27 09:33:59;;;;;;;9.48;2.40;;;7.00;99.90;;;;;;5029373;28;20041;-77
2022/12/27 09:36:27;;;;;;;9.48;2.00;;;6.90;99.90;;;;;;5012612;28;20033;-76
2022/12/27 09:38:55;;;;;;;10.05;2.60;;;6.80;99.90;;;;;;5026070;28;20076;-76
2022/12/27 09:41:30;;;;;;;8.07;2.28;;;6.70;99.90;;;;;;5031314;28;20047;-76
2022/12/27 09:44:30;;;;;;;9.65;2.15;;;6.50;99.90;;;;;;5034417;28;20068;-71
2022/12/27 09:47:11;;;;;;;10.15;2.78;;;6.30;99.90;;;;;;5022700;28;20041;-75
2022/12/27 09:49:44;;;;;;;10.90;2.97;;;6.00;99.90;;;;;;5027034;28;20045;-76
2022/12/27 09:52:13;;;;;;;9.75;1.88;;;6.00;99.90;;;;;;5043735;28;20041;-71
2022/12/27 09:54:51;;;;;;;7.25;2.00;;;6.40;99.90;;;;;;5034116;28;20051;-71
2022/12/27 09:57:25;;;;;;;5.80;1.90;;;7.50;99.90;;;;;;5034961;28;20025;-77
2022/12/27 09:59:57;;;;;;;10.32;2.55;;;8.60;99.90;;;;;;5018889;28;20449;-77
2022/12/27 10:02:27;;;;;;;7.93;1.90;;;9.50;99.90;;;;;;5052418;28;20110;-71
2022/12/27 10:04:55;;;;;;;15.02;3.38;;;10.20;99.90;;;;;;5020877;28;20550;-71
2022/12/27 10:07:35;;;;;;;11.30;3.22;;;10.40;99.90;;;;;;5018901;28;20045;-72
2022/12/27 10:10:31;;;;;;;7.85;2.10;;;9.90;99.90;;;;;;5019411;28;20053;-70
2022/12/27 10:13:19;;;;;;;9.82;3.03;;;9.30;99.90;;;;;;5031156;28;20036;-70
2022/12/27 10:16:18;;;;;;;9.43;2.25;;;8.70;99.90;;;;;;5014103;28;20041;-70
2022/12/27 10:19:04;;;;;;;12.38;2.30;;;8.20;99.90;;;;;;5015759;28;20033;-69
2022/12/27 10:21:34;;;;;;;5.95;1.90;;;7.70;99.90;;;;;;5033247;28;20068;-71
2022/12/27 10:24:19;;;;;;;10.20;2.00;;;7.60;99.90;;;;;;5032576;28;20771;-70
2022/12/27 10:26:45;;;;;;;10.18;2.17;;;7.50;99.90;;;;;;5015069;28;20069;-70
2022/12/27 10:29:20;;;;;;;8.13;1.80;;;7.20;99.90;;;;;;5015791;28;20450;-69
2022/12/27 10:31:45;;;;;;;8.02;2.00;;;7.10;99.90;;;;;;5012708;28;20034;-69
2022/12/27 10:34:14;;;;;;;10.07;2.15;;;7.50;99.90;;;;;;5032334;28;20559;-77
2022/12/27 10:36:41;;;;;;;7.68;2.20;;;8.20;99.90;;;;;;5012230;28;20125;-77
2022/12/27 10:39:24;;;;;;;9.75;2.55;;;9.00;99.90;;;;;;5027426;28;20081;-76
2022/12/27 10:41:59;;;;;;;9.93;2.65;;;9.10;99.90;;;;;;5032774;28;20129;-78
2022/12/27 10:44:25;;;;;;;8.68;2.28;;;9.60;99.90;;;;;;5032813;28;20444;-78
2022/12/27 10:46:54;;;;;;;7.90;1.92;;;10.50;99.90;;;;;;5033109;28;20041;-77
2022/12/27 10:49:30;;;;;;;9.07;2.28;;;11.30;99.90;;;;;;5032577;28;20041;-70
2022/12/27 10:52:22;;;;;;;13.40;2.58;;;11.80;99.90;;;;;;5014444;28;20079;-70
2022/12/27 10:54:51;;;;;;;8.52;2.22;;;12.40;99.90;;;;;;5013927;28;20045;-78
2022/12/27 10:57:25;;;;;;;7.88;1.95;;;13.00;99.90;;;;;;5032893;28;20490;-79
2022/12/27 11:00:16;;;;;;;11.05;2.28;;;13.20;99.90;;;;;;5014486;28;20065;-68
2022/12/27 11:02:56;;;;;;;9.73;2.38;;;13.10;99.90;;;;;;5015037;28;20549;-70
2022/12/27 11:05:25;;;;;;;9.43;2.13;;;13.20;99.90;;;;;;5014022;28;20075;-70
2022/12/27 11:07:51;;;;;;;11.95;2.30;;;12.90;99.90;;;;;;5014675;28;20049;-70
2022/12/27 11:10:18;;;;;;;10.32;2.63;;;12.40;99.90;;;;;;5014517;28;20107;-71
2022/12/27 11:13:02;;;;;;;10.20;2.70;;;11.80;99.90;;;;;;5031897;28;20108;-78
2022/12/27 11:15:32;;;;;;;7.95;2.55;;;11.20;99.90;;;;;;5014496;28;20048;-77
2022/12/27 11:18:00;;;;;;;;;;;10.50;99.90;;;;;;5030564;28;20037;-75
2022/12/27 11:20:33;;;;;;;8.40;2.13;;;9.90;99.90;;;;;;5012526;28;20385;-75
2022/12/27 11:23:02;;;;;;;9.40;1.98;;;9.40;99.90;;;;;;5013783;28;20041;-76
2022/12/27 11:25:29;;;;;;;7.60;1.70;;;9.10;99.90;;;;;;5013630;28;20049;-76
2022/12/27 11:28:05;;;;;;;9.63;2.30;;;8.70;99.90;;;;;;5014199;28;20041;-76
2022/12/27 11:30:35;;;;;;;12.65;2.75;;;8.50;99.90;;;;;;5011836;28;20103;-76
2022/12/27 11:33:17;;;;;;;8.20;2.78;;;8.40;99.90;;;;;;5009289;28;20049;-69
2022/12/27 11:35:50;;;;;;;7.18;1.98;;;8.20;99.90;;;;;;5017087;28;20052;-69
2022/12/27 11:38:37;;;;;;;11.82;2.13;;;8.10;99.90;;;;;;5044347;28;20120;-68
2022/12/27 11:41:44;;;;;;;8.25;2.00;;;8.00;99.90;;;;;;5033410;28;20136;-69
2022/12/27 11:44:23;;;;;;;7.78;2.10;;;8.00;99.90;;;;;;4992104;28;20046;-69
2022/12/27 11:46:54;;;;;;;11.68;2.20;;;8.20;99.90;;;;;;5013471;28;20056;-69
2022/12/27 11:49:27;;;;;;;6.28;1.75;;;8.60;99.90;;;;;;5033460;28;20041;-77
2022/12/27 11:52:02;;;;;;;9.10;2.72;;;8.80;99.90;;;;;;4996330;28;20088;-77
2022/12/27 11:54:52;;;;;;;11.25;2.17;;;8.90;99.90;;;;;;5030077;28;20049;-77
2022/12/27 11:57:21;;;;;;;;;;;8.90;99.90;;;;;;5013478;28;20509;-76
2022/12/27 12:00:12;;;;;;;11.48;2.30;;;8.90;99.90;;;;;;5012417;28;19940;-76
2022/12/27 12:02:55;;;;;;;13.32;5.15;;;9.00;99.90;;;;;;5029855;28;20041;-76
2022/12/27 12:06:03;;;;;;;21.75;6.70;;;9.30;99.90;;;;;;5029480;28;20129;-77
2022/12/27 12:08:50;;;;;;;15.25;5.38;;;9.30;99.90;;;;;;4949213;29;20192;-69
2022/12/27 12:11:49;;;;;;;14.07;6.22;;;9.30;99.90;;;;;;4949823;29;20578;-68
2022/12/27 12:14:57;;;;;;;16.20;4.80;;;9.20;99.90;;;;;;4933717;29;20050;-76
2022/12/27 12:17:34;;;;;;;12.55;3.15;;;9.20;99.90;;;;;;4929539;29;20047;-77
2022/12/27 12:20:03;;;;;;;11.23;3.38;;;9.10;99.90;;;;;;4949615;29;20058;-78
2022/12/27 12:23:06;;;;;;;11.60;3.25;;;8.90;99.90;;;;;;4948819;29;20112;-76
2022/12/27 12:25:53;;;;;;;11.10;2.80;;;8.70;99.90;;;;;;4949236;29;20051;-69
2022/12/27 12:28:34;;;;;;;8.57;3.08;;;8.60;99.90;;;;;;4949522;29;20138;-68
2022/12/27 12:31:30;;;;;;;10.23;3.38;;;8.40;99.90;;;;;;4948358;29;20050;-70
2022/12/27 12:34:37;;;;;;;10.38;2.60;;;8.20;99.90;;;;;;4949409;29;20035;-69
2022/12/27 12:37:37;;;;;;;13.75;4.35;;;8.00;99.90;;;;;;4948587;29;20039;-69
2022/12/27 12:40:32;;;;;;;10.80;3.45;;;7.90;99.90;;;;;;4948717;28;20543;-77
2022/12/27 12:43:45;;;;;;;10.70;3.65;;;7.80;99.90;;;;;;4934130;28;20049;-69
2022/12/27 12:46:32;;;;;;;11.82;4.13;;;7.70;99.90;;;;;;4928759;29;20047;-69
2022/12/27 12:49:37;;;;;;;13.00;3.70;;;7.60;99.90;;;;;;4948078;28;20271;-77
2022/12/27 12:52:19;;;;;;;14.77;4.55;;;7.60;99.90;;;;;;4930503;28;20039;-77
2022/12/27 12:54:54;;;;;;;10.98;5.35;;;7.60;99.90;;;;;;4944383;29;20054;-70
2022/12/27 12:57:35;;;;;;;12.70;4.13;;;7.50;99.90;;;;;;4946494;29;20043;-69
2022/12/27 13:00:08;;;;;;;12.35;4.00;;;7.50;99.90;;;;;;4957189;28;20047;-77
2022/12/27 13:03:01;;;;;;;11.95;4.20;;;7.50;99.90;;;;;;4950453;28;20384;-77
2022/12/27 13:05:50;;;;;;;12.65;4.18;;;7.60;99.90;;;;;;4953869;28;20035;-69
2022/12/27 13:08:37;;;;;;;10.32;3.53;;;7.60;99.90;;;;;;4933498;28;20089;-78
2022/12/27 13:11:19;;;;;;;9.80;4.43;;;7.60;99.90;;;;;;4954923;28;20083;-77
2022/12/27 13:13:50;;;;;;;7.80;4.25;;;7.60;99.90;;;;;;4931430;29;20039;-70
2022/12/27 13:16:43;;;;;;;8.88;4.20;;;7.60;99.90;;;;;;4947644;28;20039;-70
2022/12/27 13:19:36;;;;;;;9.05;4.32;;;7.60;99.90;;;;;;4935188;29;20035;-70
2022/12/27 13:22:33;;;;;;;16.55;6.35;;;7.60;99.90;;;;;;4985036;28;20487;-70
2022/12/27 13:25:20;;;;;;;14.77;5.90;;;7.50;99.90;;;;;;5006014;28;20122;-69
2022/12/27 13:28:11;;;;;;;12.48;5.90;;;7.40;99.90;;;;;;5016040;28;20040;-69
2022/12/27 13:30:49;;;;;;;17.40;6.32;;;7.30;99.90;;;;;;4995787;28;20096;-77
2022/12/27 13:33:43;;;;;;;14.30;5.75;;;7.30;99.90;;;;;;5030606;28;20037;-69
2022/12/27 13:36:20;;;;;;;18.95;6.65;;;7.30;99.90;;;;;;5015758;28;20132;-69
2022/12/27 13:38:48;;;;;;;21.15;7.00;;;7.30;99.90;;;;;;5045825;28;20054;-77
2022/12/27 13:41:49;;;;;;;14.10;6.35;;;7.30;99.90;;;;;;5038825;28;20074;-76
2022/12/27 13:44:46;;;;;;;20.50;7.90;;;7.30;99.90;;;;;;5041210;28;20064;-77
2022/12/27 13:47:32;;;;;;;19.30;7.07;;;7.30;99.90;;;;;;5041617;28;20366;-77
2022/12/27 13:50:37;;;;;;;17.45;5.65;;;7.20;99.90;;;;;;5030456;28;20072;-69
2022/12/27 13:53:03;;;;;;;16.75;5.78;;;7.20;99.90;;;;;;5011665;28;20049;-69
2022/12/27 13:56:07;;;;;;;15.20;5.60;;;7.10;99.90;;;;;;5041135;28;20082;-69
2022/12/27 13:58:35;;;;;;;13.00;5.82;;;7.10;99.90;;;;;;5030240;28;20118;-76
2022/12/27 14:01:29;;;;;;;19.90;7.15;;;7.10;99.90;;;;;;5022827;28;20152;-76
2022/12/27 14:04:06;;;;;;;16.55;8.07;;;7.00;99.90;;;;;;5027889;28;20040;-76
2022/12/27 14:06:38;;;;;;;17.25;8.80;;;7.00;99.90;;;;;;5030857;28;20124;-76
2022/12/27 14:09:22;;;;;;;18.92;9.13;;;7.00;99.90;;;;;;5022220;28;20045;-69
2022/12/27 14:12:31;;;;;;;19.58;8.32;;;6.90;99.90;;;;;;5040408;28;20102;-68
2022/12/27 14:15:00;;;;;;;19.27;8.80;;;6.80;99.90;;;;;;5032706;28;20475;-77
2022/12/27 14:17:45;;;;;;;21.95;9.70;;;6.70;99.90;;;;;;5021452;28;20385;-76
2022/12/27 14:20:30;;;;;;;19.20;9.63;;;6.70;99.90;;;;;;5017522;28;20618;-76
2022/12/27 14:22:56;;;;;;;18.77;8.90;;;6.60;99.90;;;;;;5013590;28;20053;-76
2022/12/27 14:25:50;;;;;;;24.80;11.43;;;6.60;99.90;;;;;;5038646;28;20481;-68
2022/12/27 14:28:35;;;;;;;25.75;9.95;;;6.60;99.90;;;;;;5027760;28;20529;-69
2022/12/27 14:31:31;;;;;;;19.50;9.60;;;6.60;99.90;;;;;;5035911;28;20037;-77
2022/12/27 14:34:21;;;;;;;16.33;7.28;;;6.60;99.90;;;;;;5016154;28;20029;-70
2022/12/27 14:36:53;;;;;;;;;;;6.60;99.90;;;;;;5038674;28;20037;-69
2022/12/27 14:39:30;;;;;;;15.43;6.60;;;6.60;99.90;;;;;;5003740;28;19971;-77
2022/12/27 14:42:18;;;;;;;15.00;6.75;;;6.60;99.90;;;;;;5005191;28;20505;-77
2022/12/27 14:45:13;;;;;;;11.98;6.88;;;6.70;99.90;;;;;;4993554;28;20128;-77
2022/12/27 14:47:48;;;;;;;13.88;7.05;;;6.70;99.90;;;;;;5015845;28;20184;-77
2022/12/27 14:50:40;;;;;;;11.93;7.38;;;6.60;99.90;;;;;;5020941;28;20043;-70
2022/12/27 14:53:25;;;;;;;17.75;8.27;;;6.60;99.90;;;;;;5013057;28;20033;-69
2022/12/27 14:56:09;;;;;;;15.52;7.20;;;6.60;99.90;;;;;;4998174;28;20042;-69
2022/12/27 14:58:43;;;;;;;14.00;8.15;;;6.60;99.90;;;;;;5009727;28;20038;-69
2022/12/27 15:01:24;;;;;;;14.35;6.95;;;6.60;99.90;;;;;;5020392;28;20041;-77
2022/12/27 15:03:53;;;;;;;16.20;7.07;;;6.60;99.90;;;;;;4999091;28;20100;-70
2022/12/27 15:06:43;;;;;;;15.07;8.48;;;6.60;99.90;;;;;;4987249;28;20581;-70
2022/12/27 15:09:32;;;;;;;19.15;9.50;;;6.60;99.90;;;;;;5012022;28;20042;-70